createdAt,value
2023-05-06T00:00:01.204Z,13.8
2023-05-06T00:03:01.178Z,13.8
2023-05-06T00:06:00.959Z,13.8
2023-05-06T00:09:00.920Z,13.8
2023-05-06T00:12:01.261Z,13.8
2023-05-06T00:15:00.937Z,13.8
2023-05-06T00:18:01.083Z,13.8
2023-05-06T00:21:00.971Z,13.8
2023-05-06T00:24:01.066Z,13.8
2023-05-06T00:27:01.023Z,13.8
2023-05-06T00:30:01.117Z,13.8
2023-05-06T00:33:00.979Z,13.8
2023-05-06T00:36:01.010Z,13.8
2023-05-06T00:39:00.950Z,13.8
2023-05-06T00:42:00.999Z,13.8
2023-05-06T00:45:00.925Z,13.8
2023-05-06T00:48:01.108Z,13.8
2023-05-06T00:51:01.066Z,13.8
2023-05-06T00:54:00.994Z,13.8
2023-05-06T00:57:01.000Z,13.8
2023-05-06T01:00:01.187Z,13.8
2023-05-06T01:03:01.149Z,13.8
2023-05-06T01:06:00.972Z,13.8
2023-05-06T01:09:00.914Z,13.8
2023-05-06T01:12:00.980Z,13.8
2023-05-06T01:15:01.090Z,13.8
2023-05-06T01:18:01.047Z,13.8
2023-05-06T01:21:00.965Z,13.8
2023-05-06T01:24:01.392Z,13.8
2023-05-06T01:27:01.002Z,13.8
2023-05-06T01:30:01.039Z,13.8
2023-05-06T01:33:01.075Z,13.8
2023-05-06T01:36:00.969Z,13.8
2023-05-06T01:39:01.038Z,13.8
2023-05-06T01:42:01.032Z,13.5
2023-05-06T01:45:00.978Z,13.5
2023-05-06T01:48:01.049Z,13.5
2023-05-06T01:51:00.952Z,13.5
2023-05-06T01:54:00.980Z,13.5
2023-05-06T01:57:00.950Z,13.5
2023-05-06T02:00:01.095Z,13.5
2023-05-06T02:03:01.132Z,13.5
2023-05-06T02:06:01.047Z,13.5
2023-05-06T02:09:00.937Z,13.5
2023-05-06T02:12:01.056Z,13.5
2023-05-06T02:15:01.209Z,13.5
2023-05-06T02:18:02.044Z,13.5
2023-05-06T02:21:00.971Z,13.5
2023-05-06T02:24:01.055Z,13.5
2023-05-06T02:27:00.993Z,13.5
2023-05-06T02:30:01.008Z,13.5
2023-05-06T02:33:01.029Z,13.5
2023-05-06T02:36:01.041Z,13.5
2023-05-06T02:39:01.056Z,13.5
2023-05-06T02:42:01.008Z,13.5
2023-05-06T02:45:01.112Z,13.5
2023-05-06T02:48:01.193Z,13.5
2023-05-06T02:51:00.937Z,13.5
2023-05-06T02:54:01.047Z,13.5
2023-05-06T02:57:00.964Z,13.5
2023-05-06T03:00:01.006Z,13.5
2023-05-06T03:03:00.984Z,13.5
2023-05-06T03:06:01.070Z,13.5
2023-05-06T03:09:00.978Z,13.5
2023-05-06T03:12:00.912Z,13
2023-05-06T03:15:00.964Z,13
2023-05-06T03:18:01.049Z,13
2023-05-06T03:21:01.043Z,13
2023-05-06T03:24:00.963Z,13
2023-05-06T03:27:00.988Z,13
2023-05-06T03:30:01.163Z,13
2023-05-06T03:33:01.020Z,13
2023-05-06T03:36:00.950Z,13
2023-05-06T03:39:00.977Z,13
2023-05-06T03:42:01.024Z,13
2023-05-06T03:45:00.950Z,13
2023-05-06T03:48:01.069Z,13
2023-05-06T03:51:01.193Z,13
2023-05-06T03:54:01.048Z,13
2023-05-06T03:57:00.998Z,13
2023-05-06T04:00:01.245Z,13
2023-05-06T04:03:01.192Z,13
2023-05-06T04:06:01.019Z,13
2023-05-06T04:09:00.981Z,12.5
2023-05-06T04:12:01.037Z,12.5
2023-05-06T04:15:00.956Z,12.5
2023-05-06T04:18:00.994Z,12.5
2023-05-06T04:21:00.992Z,12.5
2023-05-06T04:24:01.081Z,12.5
2023-05-06T04:27:00.964Z,12.5
2023-05-06T04:30:01.136Z,12.5
2023-05-06T04:33:01.075Z,12.5
2023-05-06T04:36:01.027Z,12.5
2023-05-06T04:39:00.941Z,12.5
2023-05-06T04:42:00.956Z,12.5
2023-05-06T04:45:00.960Z,12.5
2023-05-06T04:48:00.974Z,12.5
2023-05-06T04:51:00.907Z,12.5
2023-05-06T04:54:00.964Z,12.5
2023-05-06T04:57:00.957Z,12.5
2023-05-06T05:00:01.167Z,12.5
2023-05-06T05:03:01.108Z,12.5
2023-05-06T05:06:00.962Z,12.5
2023-05-06T05:09:00.929Z,12.5
2023-05-06T05:12:01.029Z,12.5
2023-05-06T05:15:00.942Z,12.5
2023-05-06T05:18:01.074Z,12.5
2023-05-06T05:21:00.979Z,12.5
2023-05-06T05:24:00.955Z,12.6
2023-05-06T05:27:00.987Z,12.6
2023-05-06T05:30:01.182Z,12.6
2023-05-06T05:33:01.129Z,12.6
2023-05-06T05:36:01.060Z,12.6
2023-05-06T05:39:01.056Z,12.6
2023-05-06T05:42:00.966Z,12.6
2023-05-06T05:45:00.947Z,12.6
2023-05-06T05:48:01.125Z,12.6
2023-05-06T05:51:00.938Z,12.6
2023-05-06T05:54:01.209Z,12.6
2023-05-06T05:57:01.018Z,12.6
2023-05-06T06:00:01.435Z,12.6
2023-05-06T06:03:01.358Z,12.6
2023-05-06T06:06:00.982Z,12.6
2023-05-06T06:09:00.962Z,12.6
2023-05-06T06:12:00.979Z,12.9
2023-05-06T06:15:01.008Z,12.9
2023-05-06T06:18:01.099Z,12.9
2023-05-06T06:21:00.974Z,12.9
2023-05-06T06:24:00.921Z,12.9
2023-05-06T06:27:00.982Z,12.9
2023-05-06T06:30:00.987Z,12.9
2023-05-06T06:33:01.111Z,12.9
2023-05-06T06:36:00.983Z,12.9
2023-05-06T06:39:00.984Z,12.9
2023-05-06T06:42:00.964Z,12.9
2023-05-06T06:45:00.972Z,12.9
2023-05-06T06:48:01.017Z,12.9
2023-05-06T06:51:00.946Z,12.9
2023-05-06T06:54:00.932Z,12.9
2023-05-06T06:57:00.973Z,12.9
2023-05-06T07:00:01.846Z,12.9
2023-05-06T07:03:01.069Z,12.9
2023-05-06T07:06:00.954Z,12.9
2023-05-06T07:09:00.962Z,12.9
2023-05-06T07:12:00.978Z,12.9
2023-05-06T07:15:00.964Z,13
2023-05-06T07:18:01.014Z,13
2023-05-06T07:21:01.016Z,13
2023-05-06T07:24:00.936Z,13
2023-05-06T07:27:00.978Z,13
2023-05-06T07:30:00.953Z,13
2023-05-06T07:33:01.096Z,13
2023-05-06T07:36:00.976Z,13
2023-05-06T07:39:01.021Z,13
2023-05-06T07:42:00.919Z,13
2023-05-06T07:45:00.990Z,13
2023-05-06T07:48:01.046Z,13.3
2023-05-06T07:51:01.006Z,13.3
2023-05-06T07:54:00.976Z,13.3
2023-05-06T07:57:01.019Z,13.3
2023-05-06T08:00:00.962Z,13.3
2023-05-06T08:03:01.170Z,13.3
2023-05-06T08:06:00.960Z,13.3
2023-05-06T08:09:00.970Z,13.3
2023-05-06T08:12:01.007Z,13.3
2023-05-06T08:15:00.942Z,13.8
2023-05-06T08:18:21.463Z,13.8
2023-05-06T08:21:01.001Z,13.8
2023-05-06T08:24:00.977Z,13.8
2023-05-06T08:27:00.961Z,13.8
2023-05-06T08:30:01.026Z,13.8
2023-05-06T08:33:01.036Z,13.8
2023-05-06T08:36:00.940Z,13.8
2023-05-06T08:39:00.933Z,14.3
2023-05-06T08:42:00.976Z,14.3
2023-05-06T08:45:01.024Z,14.3
2023-05-06T08:48:01.027Z,14.3
2023-05-06T08:51:00.961Z,14.3
2023-05-06T08:54:00.993Z,14.3
2023-05-06T08:57:00.948Z,14.3
2023-05-06T09:00:01.019Z,14.3
2023-05-06T09:03:01.178Z,14.3
2023-05-06T09:06:00.966Z,14.3
2023-05-06T09:09:01.004Z,14.8
2023-05-06T09:12:00.979Z,14.8
2023-05-06T09:15:00.930Z,14.8
2023-05-06T09:18:01.010Z,14.8
2023-05-06T09:21:01.287Z,14.8
2023-05-06T09:24:01.019Z,14.8
2023-05-06T09:27:00.998Z,14.8
2023-05-06T09:30:01.162Z,14.8
2023-05-06T09:33:01.032Z,14.8
2023-05-06T09:36:00.953Z,15.4
2023-05-06T09:39:01.066Z,15.4
2023-05-06T09:42:00.908Z,15.4
2023-05-06T09:45:02.523Z,15.4
2023-05-06T09:48:01.234Z,15.4
2023-05-06T09:51:01.575Z,15.4
2023-05-06T09:54:01.071Z,15.4
2023-05-06T09:57:01.448Z,15.4
2023-05-06T10:00:01.055Z,16
2023-05-06T10:03:01.231Z,16
2023-05-06T10:06:01.213Z,16
2023-05-06T10:09:01.004Z,16
2023-05-06T10:12:00.923Z,16
2023-05-06T10:15:00.970Z,16
2023-05-06T10:18:01.010Z,16
2023-05-06T10:21:00.941Z,16
2023-05-06T10:24:00.953Z,16
2023-05-06T10:27:00.961Z,16.5
2023-05-06T10:30:01.046Z,16.5
2023-05-06T10:33:01.017Z,16.5
2023-05-06T10:36:01.010Z,16.5
2023-05-06T10:39:00.902Z,16.5
2023-05-06T10:42:00.920Z,17
2023-05-06T10:45:01.005Z,17
2023-05-06T10:48:00.957Z,17
2023-05-06T10:51:00.996Z,17
2023-05-06T10:54:00.996Z,17
2023-05-06T10:57:00.973Z,17
2023-05-06T11:00:01.031Z,17
2023-05-06T11:03:01.074Z,17
2023-05-06T11:06:00.960Z,17
2023-05-06T11:09:00.968Z,17
2023-05-06T11:12:00.940Z,17
2023-05-06T11:15:00.922Z,17
2023-05-06T11:18:01.113Z,17
2023-05-06T11:21:01.033Z,17
2023-05-06T11:24:00.978Z,17
2023-05-06T11:27:00.931Z,17
2023-05-06T11:30:01.076Z,17
2023-05-06T11:33:03.272Z,17
2023-05-06T11:36:00.960Z,17
2023-05-06T11:39:03.498Z,17
2023-05-06T11:42:01.047Z,17
2023-05-06T11:45:00.973Z,17
2023-05-06T11:48:01.077Z,17
2023-05-06T11:51:00.917Z,17
2023-05-06T11:54:00.917Z,17
2023-05-06T11:57:00.992Z,17
2023-05-06T12:00:01.019Z,17
2023-05-06T12:03:01.005Z,17.5
2023-05-06T12:06:00.985Z,17.5
2023-05-06T12:09:01.035Z,17.5
2023-05-06T12:12:00.997Z,17.5
2023-05-06T12:15:00.975Z,17.5
2023-05-06T12:18:01.048Z,17.5
2023-05-06T12:21:00.961Z,17.5
2023-05-06T12:24:01.028Z,17.5
2023-05-06T12:27:00.910Z,17.5
2023-05-06T12:30:01.012Z,17.5
2023-05-06T12:33:01.191Z,17.5
2023-05-06T12:36:00.976Z,17.5
2023-05-06T12:39:01.176Z,17.5
2023-05-06T12:42:00.931Z,17.5
2023-05-06T12:45:00.961Z,17.5
2023-05-06T12:48:01.169Z,17.5
2023-05-06T12:51:00.963Z,17.5
2023-05-06T12:54:00.969Z,17.5
2023-05-06T12:57:00.979Z,17.5
2023-05-06T13:00:01.013Z,17.5
2023-05-06T13:03:01.146Z,17.5
2023-05-06T13:06:01.048Z,17.5
2023-05-06T13:09:01.013Z,17.5
2023-05-06T13:12:00.979Z,17.5
2023-05-06T13:15:01.000Z,17.5
2023-05-06T13:18:01.033Z,17.5
2023-05-06T13:21:01.046Z,17.5
2023-05-06T13:24:00.982Z,17.5
2023-05-06T13:27:01.387Z,17.5
2023-05-06T13:30:01.011Z,17.5
2023-05-06T13:33:01.054Z,17.5
2023-05-06T13:36:03.354Z,17.5
2023-05-06T13:39:00.984Z,17.5
2023-05-06T13:42:00.945Z,17.5
2023-05-06T13:45:00.950Z,17.5
2023-05-06T13:48:01.048Z,17.5
2023-05-06T13:51:00.959Z,17.5
2023-05-06T13:54:00.935Z,17.5
2023-05-06T13:57:01.053Z,17.5
2023-05-06T14:00:01.062Z,17.5
2023-05-06T14:03:01.016Z,17.5
2023-05-06T14:06:00.977Z,17.5
2023-05-06T14:09:00.935Z,17.5
2023-05-06T14:12:01.018Z,17.5
2023-05-06T14:15:01.016Z,17.5
2023-05-06T14:18:01.088Z,17.5
2023-05-06T14:21:01.010Z,17.5
2023-05-06T14:24:01.024Z,17.5
2023-05-06T14:27:01.116Z,17.5
2023-05-06T14:30:00.970Z,17.5
2023-05-06T14:33:01.003Z,17.5
2023-05-06T14:36:00.957Z,17.5
2023-05-06T14:39:00.984Z,17.5
2023-05-06T14:42:01.024Z,17.5
2023-05-06T14:45:00.982Z,17.5
2023-05-06T14:48:01.177Z,17.5
2023-05-06T14:51:00.967Z,17.5
2023-05-06T14:54:00.969Z,17.5
2023-05-06T14:57:00.974Z,17.5
2023-05-06T15:00:01.255Z,17.5
2023-05-06T15:03:01.072Z,17.5
2023-05-06T15:06:01.289Z,17.5
2023-05-06T15:09:00.947Z,17.5
2023-05-06T15:12:00.901Z,17.5
2023-05-06T15:15:00.941Z,17.5
2023-05-06T15:18:01.104Z,17.5
2023-05-06T15:21:00.994Z,17.5
2023-05-06T15:24:00.877Z,17.5
2023-05-06T15:27:00.977Z,17.5
2023-05-06T15:30:01.011Z,17.5
2023-05-06T15:33:01.088Z,17.5
2023-05-06T15:36:01.053Z,17.5
2023-05-06T15:39:01.300Z,17.5
2023-05-06T15:42:01.051Z,17.5
2023-05-06T15:45:01.162Z,17.5
2023-05-06T15:48:01.028Z,17.5
2023-05-06T15:51:01.012Z,17.5
2023-05-06T15:57:01.034Z,17.5
2023-05-06T16:00:01.083Z,17.5
2023-05-06T16:03:01.198Z,17.1
2023-05-06T16:06:02.185Z,17.1
2023-05-06T16:09:01.258Z,17.1
2023-05-06T16:12:00.939Z,17.1
2023-05-06T16:15:00.921Z,17.1
2023-05-06T16:18:01.090Z,17.1
2023-05-06T16:21:01.010Z,17.1
2023-05-06T16:24:01.003Z,17.1
2023-05-06T16:27:00.960Z,17.1
2023-05-06T16:30:01.140Z,16.6
2023-05-06T16:33:01.089Z,16.6
2023-05-06T16:36:01.051Z,16.6
2023-05-06T16:39:00.919Z,16.6
2023-05-06T16:42:00.962Z,16.6
2023-05-06T16:45:00.983Z,16
2023-05-06T16:48:01.158Z,16
2023-05-06T16:51:00.951Z,16
2023-05-06T16:54:00.954Z,16
2023-05-06T16:57:01.020Z,15.5
2023-05-06T17:00:01.126Z,15.5
2023-05-06T17:03:01.365Z,15.5
2023-05-06T17:06:00.980Z,15.5
2023-05-06T17:09:00.945Z,15.5
2023-05-06T17:12:00.985Z,15.1
2023-05-06T17:15:00.974Z,15.1
2023-05-06T17:18:01.116Z,15.1
2023-05-06T17:21:00.969Z,15.1
2023-05-06T17:24:00.991Z,15.1
2023-05-06T17:27:01.834Z,15.1
2023-05-06T17:30:01.010Z,15.1
2023-05-06T17:33:01.030Z,15.1
2023-05-06T17:36:00.993Z,15.1
2023-05-06T17:39:00.984Z,15.1
2023-05-06T17:42:01.001Z,15.1
2023-05-06T17:45:00.941Z,15.1
2023-05-06T17:48:01.016Z,15.1
2023-05-06T17:51:00.934Z,15.1
2023-05-06T17:54:00.925Z,15.1
2023-05-06T17:57:00.969Z,14.6
2023-05-06T18:00:01.061Z,14.6
2023-05-06T18:03:01.157Z,14.6
2023-05-06T18:06:01.096Z,14.6
2023-05-06T18:09:00.939Z,14.6
2023-05-06T18:12:01.005Z,14.6
2023-05-06T18:15:01.042Z,14.6
2023-05-06T18:18:01.139Z,14.3
2023-05-06T18:21:00.944Z,14.3
2023-05-06T18:24:15.782Z,14.3
2023-05-06T18:27:00.969Z,14.3
2023-05-06T18:30:01.277Z,14.3
2023-05-06T18:33:01.028Z,14.3
2023-05-06T18:36:01.034Z,14.3
2023-05-06T18:39:00.981Z,14.3
2023-05-06T18:42:00.993Z,14.3
2023-05-06T18:45:01.031Z,14.3
2023-05-06T18:48:01.125Z,13.9
2023-05-06T18:51:00.947Z,13.9
2023-05-06T18:54:00.948Z,13.9
2023-05-06T18:57:01.062Z,13.9
2023-05-06T19:00:01.014Z,13.9
2023-05-06T19:03:00.963Z,13.9
2023-05-06T19:06:00.964Z,13.4
2023-05-06T19:09:00.968Z,13.4
2023-05-06T19:12:00.953Z,13.4
2023-05-06T19:15:00.995Z,13.4
2023-05-06T19:18:01.001Z,13.4
2023-05-06T19:21:00.945Z,13.4
2023-05-06T19:24:00.993Z,13.4
2023-05-06T19:27:00.920Z,13
2023-05-06T19:30:01.055Z,13
2023-05-06T19:33:01.089Z,13
2023-05-06T19:36:00.970Z,13
2023-05-06T19:39:00.968Z,13
2023-05-06T19:42:01.010Z,13
2023-05-06T19:45:00.958Z,13
2023-05-06T19:48:01.059Z,13
2023-05-06T19:51:00.942Z,12.5
2023-05-06T19:54:00.948Z,12.5
2023-05-06T19:57:01.049Z,12.5
2023-05-06T20:00:01.127Z,12.5
2023-05-06T20:03:01.173Z,12.5
2023-05-06T20:06:01.068Z,12.5
2023-05-06T20:09:01.042Z,12.5
2023-05-06T20:12:00.990Z,12.5
2023-05-06T20:15:00.982Z,12
2023-05-06T20:18:01.083Z,12
2023-05-06T20:21:01.031Z,12
2023-05-06T20:24:01.022Z,12
2023-05-06T20:27:00.992Z,12
2023-05-06T20:30:01.137Z,12
2023-05-06T20:33:01.054Z,12
2023-05-06T20:36:00.945Z,12
2023-05-06T20:39:01.112Z,12
2023-05-06T20:42:00.942Z,12
2023-05-06T20:45:01.276Z,12
2023-05-06T20:48:01.091Z,12
2023-05-06T20:51:00.998Z,12
2023-05-06T20:54:01.459Z,11.5
2023-05-06T20:57:01.002Z,11.5
2023-05-06T21:00:00.982Z,11.5
2023-05-06T21:03:01.231Z,11.5
2023-05-06T21:06:00.992Z,11.5
2023-05-06T21:09:00.934Z,11.5
2023-05-06T21:12:00.990Z,11.5
2023-05-06T21:15:00.962Z,11.5
2023-05-06T21:18:01.137Z,11.5
2023-05-06T21:21:00.993Z,11.5
2023-05-06T21:24:01.014Z,11.5
2023-05-06T21:27:00.996Z,11.5
2023-05-06T21:30:01.106Z,11
2023-05-06T21:33:01.057Z,11
2023-05-06T21:36:01.016Z,11
2023-05-06T21:39:01.050Z,11
2023-05-06T21:42:01.019Z,11
2023-05-06T21:45:01.020Z,11
2023-05-06T21:48:01.016Z,11
2023-05-06T21:51:01.000Z,11
2023-05-06T21:54:00.990Z,11
2023-05-06T21:57:00.999Z,11
2023-05-06T22:00:01.849Z,11
2023-05-06T22:03:01.133Z,11
2023-05-06T22:06:01.037Z,11
2023-05-06T22:09:01.120Z,11
2023-05-06T22:12:00.972Z,11
2023-05-06T22:15:01.015Z,11
2023-05-06T22:18:01.196Z,11
2023-05-06T22:21:00.990Z,11
2023-05-06T22:24:00.956Z,10.5
2023-05-06T22:27:00.986Z,10.5
2023-05-06T22:30:01.033Z,10.5
2023-05-06T22:33:01.063Z,10.5
2023-05-06T22:36:01.054Z,10.5
2023-05-06T22:39:00.969Z,10.5
2023-05-06T22:42:01.354Z,10.5
2023-05-06T22:45:00.915Z,10.5
2023-05-06T22:48:01.126Z,10.5
2023-05-06T22:51:00.915Z,10.5
2023-05-06T22:54:01.031Z,10.5
2023-05-06T22:57:00.982Z,10.5
2023-05-06T23:00:01.211Z,10.5
2023-05-06T23:03:01.041Z,10.5
2023-05-06T23:06:00.961Z,10.5
2023-05-06T23:09:00.997Z,10.5
2023-05-06T23:12:00.937Z,10.5
2023-05-06T23:15:00.994Z,10.5
2023-05-06T23:18:01.024Z,10.5
2023-05-06T23:21:01.115Z,10.5
2023-05-06T23:24:00.937Z,10.5
2023-05-06T23:27:00.968Z,10.5
2023-05-06T23:30:01.018Z,10.5
2023-05-06T23:33:01.063Z,10.5
2023-05-06T23:36:01.046Z,10.5
2023-05-06T23:39:01.016Z,10.5
2023-05-06T23:42:01.014Z,10.5
2023-05-06T23:45:01.035Z,10.5
2023-05-06T23:48:01.109Z,10.5
2023-05-06T23:51:01.015Z,10.5
2023-05-06T23:54:00.948Z,10.5
2023-05-06T23:57:01.119Z,10.5
